createdAt,value
2023-04-09T00:03:18.185Z,2531.3478260869565
2023-04-09T00:09:36.757Z,2543.351170568562
2023-04-09T00:26:56.041Z,2316.866220735786
2023-04-09T00:39:15.157Z,2302.1571906354516
2023-04-09T00:50:11.949Z,2231.8528428093646
2023-04-09T00:56:31.880Z,2173.936454849498
2023-04-09T01:03:15.302Z,2210.6053511705686
2023-04-09T01:09:33.862Z,2254.9163879598664
2023-04-09T01:22:08.824Z,2172.4280936454848
2023-04-09T01:28:27.290Z,2139.57525083612
2023-04-09T01:34:46.017Z,2125.8896321070233
2023-04-09T01:41:03.958Z,2099.5183946488296
2023-04-09T01:47:24.227Z,2116.85618729097
2023-04-09T01:53:42.773Z,2099.789297658863
2023-04-09T02:00:01.407Z,2147.438127090301
2023-04-09T02:13:41.705Z,2059.2508361204013
2023-04-09T02:20:00.293Z,1969.036789297659
2023-04-09T02:26:18.495Z,1979.1003344481605
2023-04-09T02:32:36.760Z,1948.0133779264213
2023-04-09T02:38:55.642Z,1942.8628762541805
2023-04-09T02:45:14.220Z,1983.7826086956522
2023-04-09T02:51:33.019Z,1994.4180602006688
2023-04-09T02:58:14.137Z,1947.7257525083612
2023-04-09T03:04:32.530Z,1920.448160535117
2023-04-09T03:25:44.470Z,1782.876254180602
2023-04-09T03:32:02.769Z,1662.3779264214047
2023-04-09T03:38:21.054Z,1564.2240802675585
2023-04-09T03:44:40.286Z,1523.7692307692307
2023-04-09T03:52:24.034Z,1396.4615384615386
2023-04-09T03:58:42.869Z,1382.0066889632108
2023-04-09T04:05:00.995Z,1369.531772575251
2023-04-09T04:11:19.544Z,1414.1404682274247
2023-04-09T04:24:30.386Z,1466.6622073578596
2023-04-09T04:34:55.282Z,1499.6655518394648
2023-04-09T04:50:04.641Z,1577.5384615384614
2023-04-09T04:56:23.591Z,1562.6020066889632
2023-04-09T05:03:14.204Z,1552.8829431438128
2023-04-09T05:09:34.960Z,1528.9933110367892
2023-04-09T05:15:57.534Z,1475.2307692307693
2023-04-09T05:22:18.612Z,1458.0802675585285
2023-04-09T05:28:40.555Z,1452.3076923076924
2023-04-09T05:40:33.632Z,1419.531772575251
2023-04-09T05:46:54.491Z,1430.2441471571906
2023-04-09T05:56:08.243Z,1417.5551839464883
2023-04-09T06:02:29.958Z,1426.4916387959865
2023-04-09T06:14:36.314Z,1501.6153846153845
2023-04-09T06:20:57.290Z,1494.0301003344482
2023-04-09T06:29:09.362Z,1529.0334448160536
2023-04-09T06:40:12.889Z,1442.4180602006688
2023-04-09T06:46:34.070Z,1405.2307692307693
2023-04-09T06:52:55.022Z,1355.180602006689
2023-04-09T06:59:16.311Z,1366.200668896321
2023-04-09T07:07:36.517Z,1348.2140468227424
2023-04-09T07:13:58.473Z,1371.2709030100334
2023-04-09T07:20:19.313Z,1395.7056856187291
2023-04-09T07:26:40.685Z,1327.2240802675585
2023-04-09T07:33:01.988Z,1330.2040133779265
2023-04-09T07:45:18.739Z,1282.0702341137123
2023-04-09T07:51:40.133Z,1305.923076923077
2023-04-09T07:58:02.479Z,1378.0234113712374
2023-04-09T08:06:51.584Z,1244.923076923077
2023-04-09T08:13:13.259Z,1184.7826086956522
2023-04-09T08:31:46.448Z,1200.76254180602
2023-04-09T08:38:08.191Z,1183.8528428093646
2023-04-09T08:44:29.902Z,1165.61872909699
2023-04-09T08:50:51.833Z,1197.1772575250836
2023-04-09T08:57:14.365Z,1147.571906354515
2023-04-09T09:03:36.394Z,1122.7090301003345
2023-04-09T09:09:58.029Z,1135.5986622073578
2023-04-09T09:17:16.260Z,1132.6120401337794
2023-04-09T09:23:37.725Z,1116.9498327759197
2023-04-09T09:30:00.177Z,1098.304347826087
2023-04-09T09:36:21.712Z,1070.3745819397993
2023-04-09T09:42:43.896Z,1066.4749163879599
2023-04-09T09:54:40.266Z,1070.5484949832776
2023-04-09T10:03:14.752Z,1098.5384615384614
2023-04-09T10:10:19.190Z,1119.8862876254182
2023-04-09T10:16:41.156Z,1062.5685618729096
2023-04-09T10:32:13.948Z,1077.6655518394648
2023-04-09T10:38:35.811Z,1135.531772575251
2023-04-09T10:51:32.488Z,1112.963210702341
2023-04-09T10:57:55.152Z,1153.0401337792641
2023-04-09T11:04:18.568Z,1126.0434782608695
2023-04-09T11:10:40.844Z,1121.4581939799332
2023-04-09T11:17:04.192Z,1050.438127090301
2023-04-09T11:23:26.826Z,1041.4414715719063
2023-04-09T11:29:49.040Z,974.38127090301
2023-04-09T11:41:32.665Z,919.2508361204013
2023-04-09T11:48:43.630Z,855.5752508361204
2023-04-09T11:57:36.707Z,898.2240802675585
2023-04-09T12:03:59.791Z,919.1571906354515
2023-04-09T12:10:29.563Z,920.0903010033445
2023-04-09T12:16:58.655Z,805.9297658862877
2023-04-09T12:23:20.670Z,813.2709030100334
2023-04-09T12:29:45.158Z,792.0501672240803
2023-04-09T12:36:07.518Z,774.6521739130435
2023-04-09T12:42:31.513Z,799.5685618729098
2023-04-09T12:48:53.083Z,793.3377926421405
2023-04-09T12:55:15.061Z,761.6923076923077
2023-04-09T13:01:36.196Z,676.6755852842809
2023-04-09T13:07:56.869Z,605.5785953177258
2023-04-09T13:31:38.457Z,730.6688963210702
2023-04-09T13:37:59.006Z,744.5418060200669
2023-04-09T13:46:18.014Z,735.2775919732442
2023-04-09T13:54:06.001Z,721.8361204013378
2023-04-09T14:08:23.460Z,703.4214046822742
2023-04-09T14:14:43.739Z,715.1103678929766
2023-04-09T14:21:03.550Z,725.5685618729098
2023-04-09T14:27:23.113Z,744.0836120401337
2023-04-09T14:49:45.720Z,767.3377926421405
2023-04-09T15:09:53.902Z,811.6488294314381
2023-04-09T15:22:00.099Z,804.0735785953177
2023-04-09T15:28:19.724Z,833.4147157190636
2023-04-09T15:34:39.549Z,856.1571906354515
2023-04-09T15:52:00.206Z,848.3210702341137
2023-04-09T16:04:35.597Z,855.6789297658863
2023-04-09T16:10:56.386Z,857.4682274247492
2023-04-09T16:17:16.766Z,868.3344481605351
2023-04-09T16:24:14.127Z,840.3946488294314
2023-04-09T16:30:35.876Z,945.2140468227425
2023-04-09T16:36:57.672Z,1056.5351170568563
2023-04-09T16:59:46.010Z,1148.85618729097
2023-04-09T17:06:21.611Z,1124.5384615384614
2023-04-09T17:12:44.358Z,1135.715719063545
2023-04-09T17:19:05.186Z,1144.7257525083612
2023-04-09T17:25:26.337Z,1163.020066889632
2023-04-09T17:31:47.553Z,1168.3678929765886
2023-04-09T17:38:08.560Z,1190.85618729097
2023-04-09T17:49:09.995Z,1179.5785953177258
2023-04-09T17:55:30.607Z,1204.247491638796
2023-04-09T18:05:00.637Z,1260.0066889632108
2023-04-09T18:11:21.537Z,1283.923076923077
2023-04-09T18:21:39.290Z,1308.1839464882944
2023-04-09T18:27:58.396Z,1366.4515050167224
2023-04-09T18:38:44.139Z,1518.5652173913043
2023-04-09T18:52:27.384Z,1540.561872909699
2023-04-09T18:58:46.393Z,1529.3076923076924
2023-04-09T19:05:04.835Z,1458.675585284281
2023-04-09T19:19:18.465Z,1434.732441471572
2023-04-09T19:32:12.506Z,1636.2909698996655
2023-04-09T19:40:28.722Z,1580.160535117057
2023-04-09T19:57:00.532Z,1573.531772575251
2023-04-09T20:13:14.890Z,1615.8026755852843
2023-04-09T20:20:28.390Z,1714.6555183946489
2023-04-09T20:26:47.658Z,1904.3779264214047
2023-04-09T20:33:06.708Z,2190.1103678929767
2023-04-09T20:39:25.221Z,2211.9866220735785
2023-04-09T20:45:44.150Z,2280.9933110367892
2023-04-09T20:52:05.750Z,2271.7959866220735
2023-04-09T20:58:28.422Z,2236.3010033444816
2023-04-09T21:10:33.644Z,2091.6622073578596
2023-04-09T21:25:25.874Z,2069.6354515050166
2023-04-09T21:36:30.790Z,1959.0434782608695
2023-04-09T21:48:44.836Z,1791.1404682274247
2023-04-09T21:55:06.612Z,1810.9498327759197
2023-04-09T22:09:07.030Z,1755.324414715719
2023-04-09T22:15:25.796Z,1790.2341137123747
2023-04-09T22:21:45.163Z,1914.247491638796
2023-04-09T22:28:06.229Z,2140.5384615384614
2023-04-09T22:34:24.649Z,2284.628762541806
2023-04-09T22:40:44.854Z,2378.464882943144
2023-04-09T22:47:06.443Z,2386.1872909698995
2023-04-09T22:53:25.659Z,2316.7157190635453
2023-04-09T23:01:25.890Z,2187.1304347826085
2023-04-09T23:10:37.689Z,2098.3846153846152
2023-04-09T23:16:56.269Z,1962.4147157190635
2023-04-09T23:38:52.480Z,1781.1070234113713
2023-04-09T23:45:11.389Z,1803.7257525083612
2023-04-09T23:54:00.570Z,1871.4548494983278
